sensor_id;sensor_type;location;lat;lon;timestamp;P1;durP1;ratioP1;P2;durP2;ratioP2
44925;SDS011;30662;51.210;7.656;2023-03-05T00:00:47;8.05;;;1.73;;
44925;SDS011;30662;51.210;7.656;2023-03-05T00:03:13;7.63;;;1.55;;
44925;SDS011;30662;51.210;7.656;2023-03-05T00:05:39;5.40;;;1.65;;
44925;SDS011;30662;51.210;7.656;2023-03-05T00:08:06;4.97;;;1.67;;
44925;SDS011;30662;51.210;7.656;2023-03-05T00:10:32;6.05;;;1.50;;
44925;SDS011;30662;51.210;7.656;2023-03-05T00:12:58;4.03;;;1.88;;
44925;SDS011;30662;51.210;7.656;2023-03-05T00:15:24;5.28;;;2.17;;
44925;SDS011;30662;51.210;7.656;2023-03-05T00:17:49;6.32;;;2.10;;
44925;SDS011;30662;51.210;7.656;2023-03-05T00:20:15;4.68;;;1.42;;
44925;SDS011;30662;51.210;7.656;2023-03-05T00:22:41;2.55;;;1.30;;
44925;SDS011;30662;51.210;7.656;2023-03-05T00:25:08;2.40;;;1.55;;
44925;SDS011;30662;51.210;7.656;2023-03-05T00:27:34;4.63;;;1.70;;
44925;SDS011;30662;51.210;7.656;2023-03-05T00:30:00;8.98;;;2.42;;
44925;SDS011;30662;51.210;7.656;2023-03-05T00:32:26;4.32;;;1.65;;
44925;SDS011;30662;51.210;7.656;2023-03-05T00:34:52;5.00;;;1.65;;
44925;SDS011;30662;51.210;7.656;2023-03-05T00:37:18;4.57;;;1.48;;
44925;SDS011;30662;51.210;7.656;2023-03-05T00:39:43;4.47;;;1.30;;
44925;SDS011;30662;51.210;7.656;2023-03-05T00:42:09;4.40;;;1.63;;
44925;SDS011;30662;51.210;7.656;2023-03-05T00:44:35;5.80;;;2.33;;
44925;SDS011;30662;51.210;7.656;2023-03-05T00:47:01;2.85;;;1.30;;
44925;SDS011;30662;51.210;7.656;2023-03-05T00:49:27;3.30;;;1.85;;
44925;SDS011;30662;51.210;7.656;2023-03-05T00:51:53;3.75;;;1.70;;
44925;SDS011;30662;51.210;7.656;2023-03-05T00:54:19;8.57;;;1.55;;
44925;SDS011;30662;51.210;7.656;2023-03-05T00:56:45;7.28;;;1.52;;
44925;SDS011;30662;51.210;7.656;2023-03-05T00:59:12;3.92;;;1.73;;
44925;SDS011;30662;51.210;7.656;2023-03-05T01:01:38;2.53;;;1.80;;
44925;SDS011;30662;51.210;7.656;2023-03-05T01:04:04;4.45;;;1.55;;
44925;SDS011;30662;51.210;7.656;2023-03-05T01:06:30;4.18;;;1.48;;
44925;SDS011;30662;51.210;7.656;2023-03-05T01:08:56;3.10;;;1.60;;
44925;SDS011;30662;51.210;7.656;2023-03-05T01:11:22;3.85;;;1.30;;
44925;SDS011;30662;51.210;7.656;2023-03-05T01:13:48;5.07;;;1.50;;
44925;SDS011;30662;51.210;7.656;2023-03-05T01:16:13;5.43;;;1.50;;
44925;SDS011;30662;51.210;7.656;2023-03-05T01:18:40;4.93;;;1.52;;
44925;SDS011;30662;51.210;7.656;2023-03-05T01:21:06;5.32;;;1.50;;
44925;SDS011;30662;51.210;7.656;2023-03-05T01:23:32;3.97;;;2.13;;
44925;SDS011;30662;51.210;7.656;2023-03-05T01:26:00;3.22;;;1.60;;
44925;SDS011;30662;51.210;7.656;2023-03-05T01:28:26;2.88;;;1.83;;
44925;SDS011;30662;51.210;7.656;2023-03-05T01:30:52;2.75;;;1.50;;
44925;SDS011;30662;51.210;7.656;2023-03-05T01:33:18;8.73;;;1.70;;
44925;SDS011;30662;51.210;7.656;2023-03-05T01:35:45;5.85;;;2.00;;
44925;SDS011;30662;51.210;7.656;2023-03-05T01:38:13;8.98;;;1.70;;
44925;SDS011;30662;51.210;7.656;2023-03-05T01:40:40;4.20;;;1.80;;
44925;SDS011;30662;51.210;7.656;2023-03-05T01:43:18;7.35;;;2.05;;
44925;SDS011;30662;51.210;7.656;2023-03-05T01:51:28;5.22;;;2.50;;
44925;SDS011;30662;51.210;7.656;2023-03-05T01:53:57;8.77;;;2.97;;
44925;SDS011;30662;51.210;7.656;2023-03-05T01:56:25;8.80;;;3.80;;
44925;SDS011;30662;51.210;7.656;2023-03-05T01:58:53;9.35;;;3.65;;
44925;SDS011;30662;51.210;7.656;2023-03-05T02:01:36;12.80;;;4.22;;
44925;SDS011;30662;51.210;7.656;2023-03-05T02:04:05;10.70;;;5.00;;
44925;SDS011;30662;51.210;7.656;2023-03-05T02:06:33;12.50;;;5.55;;
44925;SDS011;30662;51.210;7.656;2023-03-05T02:09:00;11.10;;;4.57;;
44925;SDS011;30662;51.210;7.656;2023-03-05T02:11:25;8.52;;;4.60;;
44925;SDS011;30662;51.210;7.656;2023-03-05T02:13:51;12.40;;;5.85;;
44925;SDS011;30662;51.210;7.656;2023-03-05T02:16:17;15.90;;;6.32;;
44925;SDS011;30662;51.210;7.656;2023-03-05T02:18:43;16.90;;;6.13;;
44925;SDS011;30662;51.210;7.656;2023-03-05T02:21:10;16.42;;;6.13;;
44925;SDS011;30662;51.210;7.656;2023-03-05T02:23:36;12.73;;;6.43;;
44925;SDS011;30662;51.210;7.656;2023-03-05T02:26:07;16.67;;;6.68;;
44925;SDS011;30662;51.210;7.656;2023-03-05T02:28:51;15.20;;;8.23;;
44925;SDS011;30662;51.210;7.656;2023-03-05T02:31:22;15.00;;;8.05;;
44925;SDS011;30662;51.210;7.656;2023-03-05T02:33:49;16.20;;;8.85;;
44925;SDS011;30662;51.210;7.656;2023-03-05T02:36:16;14.05;;;8.23;;
44925;SDS011;30662;51.210;7.656;2023-03-05T02:38:43;19.40;;;8.45;;
44925;SDS011;30662;51.210;7.656;2023-03-05T02:41:10;17.13;;;8.88;;
44925;SDS011;30662;51.210;7.656;2023-03-05T02:43:37;12.00;;;8.95;;
44925;SDS011;30662;51.210;7.656;2023-03-05T02:46:03;15.88;;;9.05;;
44925;SDS011;30662;51.210;7.656;2023-03-05T02:48:29;19.48;;;9.10;;
44925;SDS011;30662;51.210;7.656;2023-03-05T02:50:55;14.73;;;10.05;;
44925;SDS011;30662;51.210;7.656;2023-03-05T02:53:22;15.38;;;9.65;;
44925;SDS011;30662;51.210;7.656;2023-03-05T02:55:48;17.17;;;9.73;;
44925;SDS011;30662;51.210;7.656;2023-03-05T02:58:14;15.40;;;9.35;;
44925;SDS011;30662;51.210;7.656;2023-03-05T03:00:41;15.63;;;8.85;;
44925;SDS011;30662;51.210;7.656;2023-03-05T03:03:07;12.43;;;8.50;;
44925;SDS011;30662;51.210;7.656;2023-03-05T03:05:34;18.00;;;8.82;;
44925;SDS011;30662;51.210;7.656;2023-03-05T03:08:01;14.20;;;8.18;;
44925;SDS011;30662;51.210;7.656;2023-03-05T03:10:27;14.43;;;8.82;;
44925;SDS011;30662;51.210;7.656;2023-03-05T03:12:53;18.20;;;9.82;;
44925;SDS011;30662;51.210;7.656;2023-03-05T03:15:19;14.80;;;9.65;;
44925;SDS011;30662;51.210;7.656;2023-03-05T03:17:45;16.13;;;9.30;;
44925;SDS011;30662;51.210;7.656;2023-03-05T03:20:12;14.88;;;9.18;;
44925;SDS011;30662;51.210;7.656;2023-03-05T03:22:40;13.40;;;9.20;;
44925;SDS011;30662;51.210;7.656;2023-03-05T03:25:06;16.17;;;9.77;;
44925;SDS011;30662;51.210;7.656;2023-03-05T03:27:32;15.07;;;8.70;;
44925;SDS011;30662;51.210;7.656;2023-03-05T03:29:58;27.45;;;9.90;;
44925;SDS011;30662;51.210;7.656;2023-03-05T03:32:29;18.27;;;8.90;;
44925;SDS011;30662;51.210;7.656;2023-03-05T03:34:56;12.30;;;7.35;;
44925;SDS011;30662;51.210;7.656;2023-03-05T03:37:22;14.02;;;7.68;;
44925;SDS011;30662;51.210;7.656;2023-03-05T03:39:48;14.77;;;7.50;;
44925;SDS011;30662;51.210;7.656;2023-03-05T03:42:17;13.02;;;6.75;;
44925;SDS011;30662;51.210;7.656;2023-03-05T03:44:46;11.30;;;6.65;;
44925;SDS011;30662;51.210;7.656;2023-03-05T03:47:12;11.77;;;6.53;;
44925;SDS011;30662;51.210;7.656;2023-03-05T03:49:38;10.13;;;7.50;;
44925;SDS011;30662;51.210;7.656;2023-03-05T03:52:04;11.60;;;6.30;;
44925;SDS011;30662;51.210;7.656;2023-03-05T03:54:31;10.98;;;6.70;;
44925;SDS011;30662;51.210;7.656;2023-03-05T03:56:57;10.45;;;5.53;;
44925;SDS011;30662;51.210;7.656;2023-03-05T03:59:23;23.35;;;8.95;;
44925;SDS011;30662;51.210;7.656;2023-03-05T04:01:49;14.27;;;7.40;;
44925;SDS011;30662;51.210;7.656;2023-03-05T04:04:15;11.93;;;6.97;;
44925;SDS011;30662;51.210;7.656;2023-03-05T04:06:41;15.88;;;7.78;;
44925;SDS011;30662;51.210;7.656;2023-03-05T04:09:07;12.20;;;7.47;;
44925;SDS011;30662;51.210;7.656;2023-03-05T04:11:34;15.20;;;6.63;;
44925;SDS011;30662;51.210;7.656;2023-03-05T04:14:02;14.95;;;7.50;;
44925;SDS011;30662;51.210;7.656;2023-03-05T04:16:28;11.30;;;6.57;;
44925;SDS011;30662;51.210;7.656;2023-03-05T04:18:54;8.48;;;5.43;;
44925;SDS011;30662;51.210;7.656;2023-03-05T04:21:20;9.65;;;5.22;;
44925;SDS011;30662;51.210;7.656;2023-03-05T04:23:46;9.88;;;4.68;;
44925;SDS011;30662;51.210;7.656;2023-03-05T04:26:12;6.18;;;4.07;;
44925;SDS011;30662;51.210;7.656;2023-03-05T04:28:38;5.80;;;3.15;;
44925;SDS011;30662;51.210;7.656;2023-03-05T04:31:04;8.68;;;4.05;;
44925;SDS011;30662;51.210;7.656;2023-03-05T04:33:30;9.70;;;4.57;;
44925;SDS011;30662;51.210;7.656;2023-03-05T04:35:56;10.05;;;3.65;;
44925;SDS011;30662;51.210;7.656;2023-03-05T04:38:22;5.90;;;3.95;;
44925;SDS011;30662;51.210;7.656;2023-03-05T04:40:48;5.65;;;3.95;;
44925;SDS011;30662;51.210;7.656;2023-03-05T04:43:14;8.88;;;4.10;;
44925;SDS011;30662;51.210;7.656;2023-03-05T04:45:40;7.32;;;3.88;;
44925;SDS011;30662;51.210;7.656;2023-03-05T04:48:07;10.95;;;4.47;;
44925;SDS011;30662;51.210;7.656;2023-03-05T04:50:35;5.45;;;3.90;;
44925;SDS011;30662;51.210;7.656;2023-03-05T04:53:01;6.40;;;3.80;;
44925;SDS011;30662;51.210;7.656;2023-03-05T04:55:27;8.85;;;4.03;;
44925;SDS011;30662;51.210;7.656;2023-03-05T04:57:53;6.45;;;4.18;;
44925;SDS011;30662;51.210;7.656;2023-03-05T05:00:20;9.10;;;4.70;;
44925;SDS011;30662;51.210;7.656;2023-03-05T05:02:47;10.48;;;5.32;;
44925;SDS011;30662;51.210;7.656;2023-03-05T05:05:16;13.23;;;6.20;;
44925;SDS011;30662;51.210;7.656;2023-03-05T05:07:44;11.60;;;6.18;;
44925;SDS011;30662;51.210;7.656;2023-03-05T05:10:10;14.68;;;8.77;;
44925;SDS011;30662;51.210;7.656;2023-03-05T05:12:37;11.20;;;6.82;;
44925;SDS011;30662;51.210;7.656;2023-03-05T05:15:05;15.88;;;7.13;;
44925;SDS011;30662;51.210;7.656;2023-03-05T05:17:32;19.02;;;8.35;;
44925;SDS011;30662;51.210;7.656;2023-03-05T05:19:59;14.15;;;8.05;;
44925;SDS011;30662;51.210;7.656;2023-03-05T05:22:26;18.02;;;8.20;;
44925;SDS011;30662;51.210;7.656;2023-03-05T05:24:54;15.35;;;9.43;;
44925;SDS011;30662;51.210;7.656;2023-03-05T05:27:20;18.95;;;9.02;;
44925;SDS011;30662;51.210;7.656;2023-03-05T05:29:46;21.95;;;9.30;;
44925;SDS011;30662;51.210;7.656;2023-03-05T05:32:15;18.15;;;8.60;;
44925;SDS011;30662;51.210;7.656;2023-03-05T05:34:42;14.55;;;8.20;;
44925;SDS011;30662;51.210;7.656;2023-03-05T05:37:08;17.70;;;10.13;;
44925;SDS011;30662;51.210;7.656;2023-03-05T05:39:34;16.42;;;10.10;;
44925;SDS011;30662;51.210;7.656;2023-03-05T05:42:00;15.63;;;10.35;;
44925;SDS011;30662;51.210;7.656;2023-03-05T05:44:26;18.13;;;10.85;;
44925;SDS011;30662;51.210;7.656;2023-03-05T05:46:52;20.40;;;12.25;;
44925;SDS011;30662;51.210;7.656;2023-03-05T05:49:18;20.45;;;12.38;;
44925;SDS011;30662;51.210;7.656;2023-03-05T05:51:44;22.20;;;12.95;;
44925;SDS011;30662;51.210;7.656;2023-03-05T05:54:13;21.55;;;12.80;;
44925;SDS011;30662;51.210;7.656;2023-03-05T05:56:40;25.45;;;14.10;;
44925;SDS011;30662;51.210;7.656;2023-03-05T05:59:06;21.30;;;14.55;;
44925;SDS011;30662;51.210;7.656;2023-03-05T06:01:33;25.17;;;15.07;;
44925;SDS011;30662;51.210;7.656;2023-03-05T06:03:59;22.63;;;13.95;;
44925;SDS011;30662;51.210;7.656;2023-03-05T06:06:26;26.88;;;15.55;;
44925;SDS011;30662;51.210;7.656;2023-03-05T06:08:52;26.17;;;15.07;;
44925;SDS011;30662;51.210;7.656;2023-03-05T06:11:19;29.00;;;15.57;;
44925;SDS011;30662;51.210;7.656;2023-03-05T06:13:46;25.52;;;14.70;;
44925;SDS011;30662;51.210;7.656;2023-03-05T06:16:16;25.85;;;15.57;;
44925;SDS011;30662;51.210;7.656;2023-03-05T06:18:44;22.73;;;14.95;;
44925;SDS011;30662;51.210;7.656;2023-03-05T06:21:12;22.77;;;15.32;;
44925;SDS011;30662;51.210;7.656;2023-03-05T06:23:40;22.88;;;16.52;;
44925;SDS011;30662;51.210;7.656;2023-03-05T06:26:07;24.50;;;16.75;;
44925;SDS011;30662;51.210;7.656;2023-03-05T06:28:34;25.85;;;16.42;;
44925;SDS011;30662;51.210;7.656;2023-03-05T06:31:04;25.75;;;15.80;;
44925;SDS011;30662;51.210;7.656;2023-03-05T06:33:32;29.70;;;17.20;;
44925;SDS011;30662;51.210;7.656;2023-03-05T06:35:58;31.88;;;18.00;;
44925;SDS011;30662;51.210;7.656;2023-03-05T06:38:24;23.58;;;15.18;;
44925;SDS011;30662;51.210;7.656;2023-03-05T06:40:50;28.50;;;17.58;;
44925;SDS011;30662;51.210;7.656;2023-03-05T06:43:16;28.02;;;17.67;;
44925;SDS011;30662;51.210;7.656;2023-03-05T06:45:42;24.10;;;16.13;;
44925;SDS011;30662;51.210;7.656;2023-03-05T06:48:08;22.05;;;16.25;;
44925;SDS011;30662;51.210;7.656;2023-03-05T06:50:36;25.77;;;16.33;;
44925;SDS011;30662;51.210;7.656;2023-03-05T06:53:02;29.35;;;15.63;;
44925;SDS011;30662;51.210;7.656;2023-03-05T06:55:28;23.65;;;16.05;;
44925;SDS011;30662;51.210;7.656;2023-03-05T06:57:54;28.35;;;15.80;;
44925;SDS011;30662;51.210;7.656;2023-03-05T07:00:20;23.20;;;15.52;;
44925;SDS011;30662;51.210;7.656;2023-03-05T07:02:46;24.17;;;16.13;;
44925;SDS011;30662;51.210;7.656;2023-03-05T07:05:12;24.00;;;15.50;;
44925;SDS011;30662;51.210;7.656;2023-03-05T07:07:38;22.48;;;15.05;;
44925;SDS011;30662;51.210;7.656;2023-03-05T07:10:04;23.40;;;15.70;;
44925;SDS011;30662;51.210;7.656;2023-03-05T07:12:33;21.92;;;14.88;;
44925;SDS011;30662;51.210;7.656;2023-03-05T07:15:00;19.88;;;15.40;;
44925;SDS011;30662;51.210;7.656;2023-03-05T07:17:26;26.52;;;16.70;;
44925;SDS011;30662;51.210;7.656;2023-03-05T07:19:52;25.85;;;16.88;;
44925;SDS011;30662;51.210;7.656;2023-03-05T07:22:18;23.48;;;16.77;;
44925;SDS011;30662;51.210;7.656;2023-03-05T07:24:46;26.10;;;17.77;;
44925;SDS011;30662;51.210;7.656;2023-03-05T07:27:11;33.05;;;18.65;;
44925;SDS011;30662;51.210;7.656;2023-03-05T07:29:37;31.45;;;19.70;;
44925;SDS011;30662;51.210;7.656;2023-03-05T07:32:03;27.77;;;20.95;;
44925;SDS011;30662;51.210;7.656;2023-03-05T07:34:30;32.38;;;20.67;;
44925;SDS011;30662;51.210;7.656;2023-03-05T07:36:56;31.77;;;22.70;;
44925;SDS011;30662;51.210;7.656;2023-03-05T07:39:22;36.10;;;23.40;;
44925;SDS011;30662;51.210;7.656;2023-03-05T07:41:48;34.38;;;22.00;;
44925;SDS011;30662;51.210;7.656;2023-03-05T07:44:15;37.33;;;23.40;;
44925;SDS011;30662;51.210;7.656;2023-03-05T07:46:42;31.83;;;21.48;;
44925;SDS011;30662;51.210;7.656;2023-03-05T07:49:08;31.15;;;20.90;;
44925;SDS011;30662;51.210;7.656;2023-03-05T07:51:34;32.08;;;21.70;;
44925;SDS011;30662;51.210;7.656;2023-03-05T07:54:00;31.20;;;20.65;;
44925;SDS011;30662;51.210;7.656;2023-03-05T07:56:30;34.17;;;21.33;;
44925;SDS011;30662;51.210;7.656;2023-03-05T07:59:00;24.77;;;19.63;;
44925;SDS011;30662;51.210;7.656;2023-03-05T08:01:28;29.10;;;19.27;;
44925;SDS011;30662;51.210;7.656;2023-03-05T08:03:55;26.00;;;19.38;;
44925;SDS011;30662;51.210;7.656;2023-03-05T08:06:22;30.60;;;19.52;;
44925;SDS011;30662;51.210;7.656;2023-03-05T08:08:47;26.50;;;18.63;;
44925;SDS011;30662;51.210;7.656;2023-03-05T08:11:14;27.90;;;18.08;;
44925;SDS011;30662;51.210;7.656;2023-03-05T08:13:41;25.85;;;18.88;;
44925;SDS011;30662;51.210;7.656;2023-03-05T08:16:09;23.98;;;19.35;;
44925;SDS011;30662;51.210;7.656;2023-03-05T08:18:37;25.98;;;18.27;;
44925;SDS011;30662;51.210;7.656;2023-03-05T08:21:03;23.58;;;16.80;;
44925;SDS011;30662;51.210;7.656;2023-03-05T08:23:29;26.02;;;17.10;;
44925;SDS011;30662;51.210;7.656;2023-03-05T08:25:55;22.13;;;16.80;;
44925;SDS011;30662;51.210;7.656;2023-03-05T08:28:21;20.80;;;15.85;;
44925;SDS011;30662;51.210;7.656;2023-03-05T08:30:48;31.92;;;16.70;;
44925;SDS011;30662;51.210;7.656;2023-03-05T08:33:14;23.45;;;15.60;;
44925;SDS011;30662;51.210;7.656;2023-03-05T08:35:42;24.35;;;17.10;;
44925;SDS011;30662;51.210;7.656;2023-03-05T08:38:08;23.70;;;17.10;;
44925;SDS011;30662;51.210;7.656;2023-03-05T08:40:34;27.45;;;17.55;;
44925;SDS011;30662;51.210;7.656;2023-03-05T08:43:00;25.38;;;17.75;;
44925;SDS011;30662;51.210;7.656;2023-03-05T08:45:26;23.73;;;16.98;;
44925;SDS011;30662;51.210;7.656;2023-03-05T08:47:53;27.35;;;16.95;;
44925;SDS011;30662;51.210;7.656;2023-03-05T08:50:21;21.98;;;16.65;;
44925;SDS011;30662;51.210;7.656;2023-03-05T08:52:48;19.92;;;15.38;;
44925;SDS011;30662;51.210;7.656;2023-03-05T08:55:15;21.27;;;12.93;;
44925;SDS011;30662;51.210;7.656;2023-03-05T08:57:41;22.80;;;11.35;;
44925;SDS011;30662;51.210;7.656;2023-03-05T09:00:07;17.70;;;10.23;;
44925;SDS011;30662;51.210;7.656;2023-03-05T09:02:35;13.02;;;8.70;;
44925;SDS011;30662;51.210;7.656;2023-03-05T09:05:02;12.90;;;7.68;;
44925;SDS011;30662;51.210;7.656;2023-03-05T09:07:28;9.02;;;6.45;;
44925;SDS011;30662;51.210;7.656;2023-03-05T09:09:54;8.60;;;6.43;;
44925;SDS011;30662;51.210;7.656;2023-03-05T09:12:20;10.00;;;6.22;;
44925;SDS011;30662;51.210;7.656;2023-03-05T09:14:45;11.13;;;5.80;;
44925;SDS011;30662;51.210;7.656;2023-03-05T09:17:11;15.65;;;5.93;;
44925;SDS011;30662;51.210;7.656;2023-03-05T09:19:37;11.27;;;5.53;;
44925;SDS011;30662;51.210;7.656;2023-03-05T09:22:03;12.25;;;5.93;;
44925;SDS011;30662;51.210;7.656;2023-03-05T09:24:29;9.88;;;5.18;;
44925;SDS011;30662;51.210;7.656;2023-03-05T09:26:58;13.23;;;6.38;;
44925;SDS011;30662;51.210;7.656;2023-03-05T09:29:25;11.70;;;5.50;;
44925;SDS011;30662;51.210;7.656;2023-03-05T09:31:52;12.18;;;6.18;;
44925;SDS011;30662;51.210;7.656;2023-03-05T09:34:18;12.45;;;5.78;;
44925;SDS011;30662;51.210;7.656;2023-03-05T09:36:44;7.88;;;5.82;;
44925;SDS011;30662;51.210;7.656;2023-03-05T09:39:11;7.78;;;5.03;;
44925;SDS011;30662;51.210;7.656;2023-03-05T09:47:47;7.90;;;5.88;;
44925;SDS011;30662;51.210;7.656;2023-03-05T09:55:53;10.80;;;5.25;;
44925;SDS011;30662;51.210;7.656;2023-03-05T09:58:37;8.25;;;6.32;;
44925;SDS011;30662;51.210;7.656;2023-03-05T10:01:21;9.90;;;5.75;;
44925;SDS011;30662;51.210;7.656;2023-03-05T10:14:39;8.15;;;4.57;;
44925;SDS011;30662;51.210;7.656;2023-03-05T10:20:12;6.57;;;4.75;;
44925;SDS011;30662;51.210;7.656;2023-03-05T10:28:28;5.75;;;4.72;;
44925;SDS011;30662;51.210;7.656;2023-03-05T10:34:35;6.30;;;5.55;;
44925;SDS011;30662;51.210;7.656;2023-03-05T10:43:05;7.32;;;6.05;;
44925;SDS011;30662;51.210;7.656;2023-03-05T10:45:40;14.20;;;7.47;;
44925;SDS011;30662;51.210;7.656;2023-03-05T10:50:49;12.38;;;8.10;;
44925;SDS011;30662;51.210;7.656;2023-03-05T10:53:26;14.57;;;8.50;;
44925;SDS011;30662;51.210;7.656;2023-03-05T10:56:02;16.08;;;8.85;;
44925;SDS011;30662;51.210;7.656;2023-03-05T11:06:14;13.05;;;9.75;;
44925;SDS011;30662;51.210;7.656;2023-03-05T11:08:40;12.88;;;9.45;;
44925;SDS011;30662;51.210;7.656;2023-03-05T11:13:32;13.77;;;9.32;;
44925;SDS011;30662;51.210;7.656;2023-03-05T11:16:03;12.25;;;9.85;;
44925;SDS011;30662;51.210;7.656;2023-03-05T11:18:31;13.13;;;9.50;;
44925;SDS011;30662;51.210;7.656;2023-03-05T11:21:06;13.75;;;9.90;;
44925;SDS011;30662;51.210;7.656;2023-03-05T11:23:37;11.48;;;8.63;;
44925;SDS011;30662;51.210;7.656;2023-03-05T11:31:00;14.95;;;9.82;;
44925;SDS011;30662;51.210;7.656;2023-03-05T11:33:28;18.17;;;13.88;;
44925;SDS011;30662;51.210;7.656;2023-03-05T11:39:19;20.58;;;13.73;;
44925;SDS011;30662;51.210;7.656;2023-03-05T11:49:44;22.60;;;17.23;;
44925;SDS011;30662;51.210;7.656;2023-03-05T11:52:18;28.58;;;20.67;;
44925;SDS011;30662;51.210;7.656;2023-03-05T11:55:09;25.67;;;19.70;;
44925;SDS011;30662;51.210;7.656;2023-03-05T11:57:42;25.23;;;18.80;;
44925;SDS011;30662;51.210;7.656;2023-03-05T12:00:23;26.83;;;20.27;;
44925;SDS011;30662;51.210;7.656;2023-03-05T12:02:55;25.42;;;19.08;;
44925;SDS011;30662;51.210;7.656;2023-03-05T12:05:27;29.10;;;19.45;;
44925;SDS011;30662;51.210;7.656;2023-03-05T12:07:56;31.55;;;20.60;;
44925;SDS011;30662;51.210;7.656;2023-03-05T12:10:28;24.95;;;19.88;;
44925;SDS011;30662;51.210;7.656;2023-03-05T12:23:27;20.00;;;16.70;;
44925;SDS011;30662;51.210;7.656;2023-03-05T12:25:54;25.48;;;18.65;;
44925;SDS011;30662;51.210;7.656;2023-03-05T12:31:14;20.63;;;16.10;;
44925;SDS011;30662;51.210;7.656;2023-03-05T12:47:44;25.30;;;18.60;;
44925;SDS011;30662;51.210;7.656;2023-03-05T12:55:31;22.98;;;18.38;;
44925;SDS011;30662;51.210;7.656;2023-03-05T12:58:01;24.95;;;17.73;;
44925;SDS011;30662;51.210;7.656;2023-03-05T13:00:38;20.83;;;16.58;;
44925;SDS011;30662;51.210;7.656;2023-03-05T13:03:08;24.25;;;17.83;;
44925;SDS011;30662;51.210;7.656;2023-03-05T13:05:46;24.00;;;17.98;;
44925;SDS011;30662;51.210;7.656;2023-03-05T13:08:25;25.60;;;18.23;;
44925;SDS011;30662;51.210;7.656;2023-03-05T13:10:57;20.55;;;16.10;;
44925;SDS011;30662;51.210;7.656;2023-03-05T13:13:26;24.17;;;17.70;;
44925;SDS011;30662;51.210;7.656;2023-03-05T13:15:55;21.75;;;15.15;;
44925;SDS011;30662;51.210;7.656;2023-03-05T13:18:22;19.13;;;14.75;;
44925;SDS011;30662;51.210;7.656;2023-03-05T13:21:03;18.63;;;14.18;;
44925;SDS011;30662;51.210;7.656;2023-03-05T13:23:32;18.67;;;14.55;;
44925;SDS011;30662;51.210;7.656;2023-03-05T13:31:32;12.30;;;10.15;;
44925;SDS011;30662;51.210;7.656;2023-03-05T13:36:57;14.98;;;11.27;;
44925;SDS011;30662;51.210;7.656;2023-03-05T13:39:27;15.15;;;11.55;;
44925;SDS011;30662;51.210;7.656;2023-03-05T13:41:58;12.25;;;10.18;;
44925;SDS011;30662;51.210;7.656;2023-03-05T13:44:26;13.55;;;9.80;;
44925;SDS011;30662;51.210;7.656;2023-03-05T13:47:04;9.00;;;7.10;;
44925;SDS011;30662;51.210;7.656;2023-03-05T13:49:42;9.13;;;7.63;;
44925;SDS011;30662;51.210;7.656;2023-03-05T13:52:08;8.38;;;7.43;;
44925;SDS011;30662;51.210;7.656;2023-03-05T13:54:35;11.75;;;8.43;;
44925;SDS011;30662;51.210;7.656;2023-03-05T13:57:02;11.57;;;8.93;;
44925;SDS011;30662;51.210;7.656;2023-03-05T13:59:30;9.88;;;8.88;;
44925;SDS011;30662;51.210;7.656;2023-03-05T14:01:59;13.15;;;9.65;;
44925;SDS011;30662;51.210;7.656;2023-03-05T14:04:28;10.43;;;8.40;;
44925;SDS011;30662;51.210;7.656;2023-03-05T14:06:59;11.65;;;9.05;;
44925;SDS011;30662;51.210;7.656;2023-03-05T14:09:41;13.00;;;9.70;;
44925;SDS011;30662;51.210;7.656;2023-03-05T14:12:53;10.50;;;9.05;;
44925;SDS011;30662;51.210;7.656;2023-03-05T14:15:03;11.18;;;9.57;;
44925;SDS011;30662;51.210;7.656;2023-03-05T14:17:45;11.02;;;9.25;;
44925;SDS011;30662;51.210;7.656;2023-03-05T14:22:38;11.50;;;10.35;;
44925;SDS011;30662;51.210;7.656;2023-03-05T14:27:54;11.23;;;10.05;;
44925;SDS011;30662;51.210;7.656;2023-03-05T14:30:22;11.70;;;10.55;;
44925;SDS011;30662;51.210;7.656;2023-03-05T14:32:50;11.93;;;10.50;;
44925;SDS011;30662;51.210;7.656;2023-03-05T14:35:23;12.05;;;9.95;;
44925;SDS011;30662;51.210;7.656;2023-03-05T14:37:52;13.35;;;10.60;;
44925;SDS011;30662;51.210;7.656;2023-03-05T14:40:22;11.65;;;9.35;;
44925;SDS011;30662;51.210;7.656;2023-03-05T14:45:21;12.77;;;10.25;;
44925;SDS011;30662;51.210;7.656;2023-03-05T14:47:50;12.27;;;9.93;;
44925;SDS011;30662;51.210;7.656;2023-03-05T14:50:50;12.45;;;11.23;;
44925;SDS011;30662;51.210;7.656;2023-03-05T14:53:25;14.75;;;11.05;;
44925;SDS011;30662;51.210;7.656;2023-03-05T14:55:55;13.43;;;10.68;;
44925;SDS011;30662;51.210;7.656;2023-03-05T14:58:23;15.30;;;11.25;;
44925;SDS011;30662;51.210;7.656;2023-03-05T15:00:52;13.23;;;11.07;;
44925;SDS011;30662;51.210;7.656;2023-03-05T15:03:19;14.07;;;12.20;;
44925;SDS011;30662;51.210;7.656;2023-03-05T15:05:46;15.55;;;13.20;;
44925;SDS011;30662;51.210;7.656;2023-03-05T15:08:15;14.95;;;12.13;;
44925;SDS011;30662;51.210;7.656;2023-03-05T15:10:43;14.13;;;12.50;;
44925;SDS011;30662;51.210;7.656;2023-03-05T15:13:09;13.95;;;12.45;;
44925;SDS011;30662;51.210;7.656;2023-03-05T15:15:38;16.00;;;14.40;;
44925;SDS011;30662;51.210;7.656;2023-03-05T15:18:04;15.45;;;13.93;;
44925;SDS011;30662;51.210;7.656;2023-03-05T15:20:30;21.23;;;14.75;;
44925;SDS011;30662;51.210;7.656;2023-03-05T15:22:57;16.88;;;15.07;;
44925;SDS011;30662;51.210;7.656;2023-03-05T15:25:23;18.40;;;16.23;;
44925;SDS011;30662;51.210;7.656;2023-03-05T15:27:53;20.77;;;15.90;;
44925;SDS011;30662;51.210;7.656;2023-03-05T15:30:27;18.50;;;16.52;;
44925;SDS011;30662;51.210;7.656;2023-03-05T15:32:55;20.05;;;17.95;;
44925;SDS011;30662;51.210;7.656;2023-03-05T15:35:22;21.58;;;17.73;;
44925;SDS011;30662;51.210;7.656;2023-03-05T15:37:49;19.90;;;17.13;;
44925;SDS011;30662;51.210;7.656;2023-03-05T15:40:16;20.75;;;17.63;;
44925;SDS011;30662;51.210;7.656;2023-03-05T15:42:45;20.55;;;18.35;;
44925;SDS011;30662;51.210;7.656;2023-03-05T15:45:12;23.08;;;19.27;;
44925;SDS011;30662;51.210;7.656;2023-03-05T15:47:38;20.70;;;18.15;;
44925;SDS011;30662;51.210;7.656;2023-03-05T15:50:04;23.60;;;19.27;;
44925;SDS011;30662;51.210;7.656;2023-03-05T15:52:31;25.90;;;19.75;;
44925;SDS011;30662;51.210;7.656;2023-03-05T15:54:58;25.13;;;20.25;;
44925;SDS011;30662;51.210;7.656;2023-03-05T15:57:25;24.17;;;20.85;;
44925;SDS011;30662;51.210;7.656;2023-03-05T15:59:52;22.85;;;19.90;;
44925;SDS011;30662;51.210;7.656;2023-03-05T16:02:18;23.13;;;20.00;;
44925;SDS011;30662;51.210;7.656;2023-03-05T16:04:44;21.40;;;19.17;;
44925;SDS011;30662;51.210;7.656;2023-03-05T16:07:10;20.35;;;18.25;;
44925;SDS011;30662;51.210;7.656;2023-03-05T16:09:43;24.15;;;18.80;;
44925;SDS011;30662;51.210;7.656;2023-03-05T16:12:13;21.45;;;17.77;;
44925;SDS011;30662;51.210;7.656;2023-03-05T16:14:43;20.58;;;17.15;;
44925;SDS011;30662;51.210;7.656;2023-03-05T16:17:10;20.45;;;17.15;;
44925;SDS011;30662;51.210;7.656;2023-03-05T16:19:39;18.83;;;16.70;;
44925;SDS011;30662;51.210;7.656;2023-03-05T16:22:07;19.75;;;16.60;;
44925;SDS011;30662;51.210;7.656;2023-03-05T16:24:33;19.58;;;15.60;;
44925;SDS011;30662;51.210;7.656;2023-03-05T16:26:59;17.27;;;15.10;;
44925;SDS011;30662;51.210;7.656;2023-03-05T16:29:25;19.67;;;14.73;;
44925;SDS011;30662;51.210;7.656;2023-03-05T16:31:55;17.27;;;13.82;;
44925;SDS011;30662;51.210;7.656;2023-03-05T16:34:21;17.27;;;14.43;;
44925;SDS011;30662;51.210;7.656;2023-03-05T16:36:48;16.67;;;14.18;;
44925;SDS011;30662;51.210;7.656;2023-03-05T16:39:17;15.60;;;13.38;;